Time;durP1;ratioP1;P1;durP2;ratioP2;P2;SDS_P1;SDS_P2;PMS_P1;PMS_P2;Temp;Humidity;BMP_temperature;BMP_pressure;BME280_temperature;BME280_humidity;BME280_pressure;Samples;Min_cycle;Max_cycle;Signal;HPM_P1;HPM_P2
2022/02/17 00:02:22;;;;;;;68.53;9.60;;;11.00;99.90;;;;;;5067579;28;20415;-68
2022/02/17 00:04:48;;;;;;;63.95;9.05;;;10.90;99.90;;;;;;5051659;28;20455;-68
2022/02/17 00:07:14;;;;;;;74.43;9.70;;;11.00;99.90;;;;;;5067112;28;20422;-68
2022/02/17 00:09:39;;;;;;;73.28;10.18;;;11.00;99.90;;;;;;5068820;28;20418;-69
2022/02/17 00:12:06;;;;;;;69.07;9.27;;;10.90;99.90;;;;;;5067408;28;20442;-69
2022/02/17 00:14:32;;;;;;;66.70;8.98;;;11.00;99.90;;;;;;5069190;28;20428;-69
2022/02/17 00:16:57;;;;;;;66.87;9.23;;;11.00;99.90;;;;;;5068542;28;20836;-68
2022/02/17 00:19:23;;;;;;;60.63;8.50;;;11.00;99.90;;;;;;5069013;28;20420;-68
2022/02/17 00:21:49;;;;;;;61.15;8.85;;;11.00;99.90;;;;;;5068714;28;20407;-68
2022/02/17 00:24:18;;;;;;;57.60;8.63;;;11.00;99.90;;;;;;5067204;28;20415;-68
2022/02/17 00:26:44;;;;;;;55.50;8.30;;;11.10;99.90;;;;;;5068244;28;20490;-68
2022/02/17 00:29:09;;;;;;;58.83;8.95;;;11.10;99.90;;;;;;5066103;28;20970;-68
2022/02/17 00:31:35;;;;;;;57.30;8.03;;;11.10;99.90;;;;;;5050243;28;20445;-67
2022/02/17 00:34:05;;;;;;;59.95;8.73;;;11.10;99.90;;;;;;5066221;28;20422;-68
2022/02/17 00:36:31;;;;;;;50.88;7.70;;;11.00;99.90;;;;;;5066345;28;20407;-67
2022/02/17 00:38:57;;;;;;;51.40;7.40;;;11.00;99.90;;;;;;5050614;28;20419;-67
2022/02/17 00:41:24;;;;;;;46.33;6.93;;;11.00;99.90;;;;;;5067878;28;21162;-68
2022/02/17 00:43:50;;;;;;;46.77;6.93;;;10.90;99.90;;;;;;5050998;28;20415;-68
2022/02/17 00:46:15;;;;;;;46.10;7.13;;;11.00;99.90;;;;;;5067276;28;20411;-68
2022/02/17 00:48:41;;;;;;;43.08;7.15;;;10.90;99.90;;;;;;5051162;28;21006;-69
2022/02/17 00:51:07;;;;;;;47.67;6.73;;;10.90;99.90;;;;;;5067174;28;20510;-69
2022/02/17 00:53:32;;;;;;;47.63;7.13;;;10.90;99.90;;;;;;5068547;28;20894;-69
2022/02/17 00:55:58;;;;;;;39.03;5.80;;;10.90;99.90;;;;;;5068790;28;20430;-69
2022/02/17 00:58:24;;;;;;;42.20;5.87;;;10.90;99.90;;;;;;5032828;28;20424;-68
2022/02/17 01:00:50;;;;;;;42.33;6.22;;;10.90;99.90;;;;;;5050293;28;20520;-69
2022/02/17 01:03:15;;;;;;;40.22;6.60;;;10.90;99.90;;;;;;5050618;28;20911;-69
2022/02/17 01:05:41;;;;;;;47.63;7.37;;;10.90;99.90;;;;;;5066757;28;20411;-69
2022/02/17 01:08:07;;;;;;;42.28;6.80;;;10.90;99.90;;;;;;5066873;28;20416;-69
2022/02/17 01:10:33;;;;;;;48.77;7.60;;;10.90;99.90;;;;;;5050950;28;20404;-68
2022/02/17 01:13:00;;;;;;;53.45;7.57;;;10.80;99.90;;;;;;5047409;28;20423;-68
2022/02/17 01:15:29;;;;;;;53.67;7.80;;;10.90;99.90;;;;;;5050727;28;20407;-68
2022/02/17 01:17:54;;;;;;;52.38;8.13;;;10.80;99.90;;;;;;5067776;28;20415;-67
2022/02/17 01:20:21;;;;;;;54.10;8.40;;;10.80;99.90;;;;;;5050257;28;20483;-67
2022/02/17 01:22:49;;;;;;;53.72;7.65;;;10.80;99.90;;;;;;5067434;28;20407;-68
2022/02/17 01:25:15;;;;;;;48.97;7.68;;;10.80;99.90;;;;;;5065992;28;20418;-68
2022/02/17 01:27:42;;;;;;;42.95;6.63;;;10.80;99.90;;;;;;5049326;28;20494;-67
2022/02/17 01:30:10;;;;;;;45.17;6.75;;;10.80;99.90;;;;;;5049863;28;20403;-68
2022/02/17 01:32:35;;;;;;;37.92;6.45;;;10.80;99.90;;;;;;5050070;28;20482;-68
2022/02/17 01:35:02;;;;;;;42.13;7.03;;;10.80;99.90;;;;;;5049097;28;21089;-69
2022/02/17 01:37:28;;;;;;;42.13;6.63;;;10.70;99.90;;;;;;5047853;28;20969;-68
2022/02/17 01:39:56;;;;;;;41.03;6.83;;;10.70;99.90;;;;;;5049987;28;21671;-68
2022/02/17 01:42:22;;;;;;;44.28;7.38;;;10.70;99.90;;;;;;5048474;28;20431;-68
2022/02/17 01:44:51;;;;;;;47.55;7.70;;;10.70;99.90;;;;;;5048519;28;20446;-69
2022/02/17 01:47:18;;;;;;;44.35;7.22;;;10.70;99.90;;;;;;5049638;28;20451;-69
2022/02/17 01:49:47;;;;;;;56.05;8.10;;;10.70;99.90;;;;;;5065861;28;20491;-68
2022/02/17 01:52:14;;;;;;;47.53;7.97;;;10.70;99.90;;;;;;5066020;28;20469;-68
2022/02/17 01:54:43;;;;;;;47.22;7.32;;;10.70;99.90;;;;;;5064519;28;20411;-68
2022/02/17 01:57:14;;;;;;;49.72;7.65;;;10.80;99.90;;;;;;5066079;28;20507;-68
2022/02/17 01:59:44;;;;;;;49.72;7.70;;;10.70;99.90;;;;;;5063780;28;20420;-68
2022/02/17 02:02:12;;;;;;;48.40;7.35;;;10.80;99.90;;;;;;5046697;28;20446;-67
2022/02/17 02:04:38;;;;;;;56.40;8.18;;;10.80;99.90;;;;;;5065643;28;20431;-68
2022/02/17 02:07:06;;;;;;;51.28;7.38;;;10.80;99.90;;;;;;5047859;28;20491;-68
2022/02/17 02:09:33;;;;;;;52.97;8.17;;;10.80;99.90;;;;;;5080861;28;20421;-68
2022/02/17 02:12:06;;;;;;;49.43;7.67;;;10.80;99.90;;;;;;5047734;28;20415;-68
2022/02/17 02:14:33;;;;;;;53.33;7.78;;;10.90;99.90;;;;;;5082391;28;20410;-68
2022/02/17 02:17:00;;;;;;;41.15;6.70;;;10.90;99.90;;;;;;5031587;28;20423;-68
2022/02/17 02:19:26;;;;;;;43.65;7.05;;;10.90;99.90;;;;;;5047695;28;20411;-68
2022/02/17 02:21:56;;;;;;;40.95;6.60;;;11.00;99.90;;;;;;5048198;28;20410;-68
2022/02/17 02:24:21;;;;;;;42.53;6.73;;;11.00;99.90;;;;;;5046578;28;20415;-69
2022/02/17 02:26:48;;;;;;;43.47;7.63;;;11.00;99.90;;;;;;5047735;28;20391;-69
2022/02/17 02:29:21;;;;;;;40.65;6.80;;;11.00;99.90;;;;;;5048626;28;20919;-68
2022/02/17 02:31:47;;;;;;;42.97;6.88;;;11.00;99.90;;;;;;5048562;28;20410;-68
2022/02/17 02:34:12;;;;;;;41.73;6.60;;;11.00;99.90;;;;;;5047692;28;20400;-68
2022/02/17 02:36:38;;;;;;;43.92;6.80;;;10.90;99.90;;;;;;5049082;28;20414;-68
2022/02/17 02:39:04;;;;;;;36.63;6.13;;;10.90;99.90;;;;;;5045775;28;20427;-69
2022/02/17 02:41:39;;;;;;;35.00;6.15;;;10.90;99.90;;;;;;5048114;28;20407;-67
2022/02/17 02:44:05;;;;;;;39.38;6.88;;;10.80;99.90;;;;;;5047914;28;20487;-67
2022/02/17 02:46:35;;;;;;;42.17;6.77;;;10.80;99.90;;;;;;5048501;28;20407;-67
2022/02/17 02:49:01;;;;;;;43.40;7.20;;;10.80;99.90;;;;;;5046686;28;20788;-68
2022/02/17 02:51:28;;;;;;;40.85;7.30;;;10.80;99.90;;;;;;5030946;28;20419;-67
2022/02/17 02:53:53;;;;;;;42.60;6.90;;;10.80;99.90;;;;;;5065534;28;20426;-67
2022/02/17 02:56:19;;;;;;;40.58;6.50;;;10.70;99.90;;;;;;5047921;28;20411;-67
2022/02/17 02:58:45;;;;;;;42.88;6.60;;;10.70;99.90;;;;;;5047180;28;20407;-67
2022/02/17 03:01:11;;;;;;;41.63;7.07;;;10.70;99.90;;;;;;5047018;28;20422;-67
2022/02/17 03:03:37;;;;;;;40.15;7.03;;;10.70;99.90;;;;;;5064931;28;20411;-67
2022/02/17 03:06:02;;;;;;;38.07;6.93;;;10.60;99.90;;;;;;5047348;28;20910;-67
2022/02/17 03:08:29;;;;;;;43.88;6.82;;;10.60;99.90;;;;;;5079070;28;20502;-67
2022/02/17 03:10:54;;;;;;;38.97;6.38;;;10.60;99.90;;;;;;5047879;28;20553;-67
2022/02/17 03:13:40;;;;;;;51.33;7.22;;;10.60;99.90;;;;;;5064374;28;20446;-67
2022/02/17 03:16:06;;;;;;;48.03;6.82;;;10.60;99.90;;;;;;5051078;28;20466;-67
2022/02/17 03:18:33;;;;;;;43.88;6.97;;;10.60;99.90;;;;;;5049415;28;20471;-67
2022/02/17 03:20:59;;;;;;;41.23;6.60;;;10.60;99.90;;;;;;5052594;28;20407;-67
2022/02/17 03:23:24;;;;;;;47.70;7.22;;;10.60;99.80;;;;;;5050802;28;20760;-67
2022/02/17 03:26:00;;;;;;;46.08;7.60;;;10.50;99.70;;;;;;5051430;28;20810;-67
2022/02/17 03:28:26;;;;;;;45.15;7.22;;;10.50;99.70;;;;;;5051680;28;20402;-67
2022/02/17 03:30:59;;;;;;;43.00;7.10;;;10.50;99.50;;;;;;5052331;28;20407;-67
2022/02/17 03:33:24;;;;;;;41.80;6.90;;;10.50;99.40;;;;;;5050802;28;21025;-67
2022/02/17 03:35:56;;;;;;;44.10;7.55;;;10.50;99.60;;;;;;5051354;28;22081;-67
2022/02/17 03:38:22;;;;;;;52.50;7.13;;;10.50;99.50;;;;;;5050620;28;20415;-67
2022/02/17 03:40:51;;;;;;;45.55;7.10;;;10.50;99.50;;;;;;5049988;28;20490;-67
2022/02/17 03:43:19;;;;;;;50.30;8.10;;;10.50;99.50;;;;;;5051350;28;20407;-67
2022/02/17 03:45:46;;;;;;;49.65;7.88;;;10.40;99.50;;;;;;5052369;28;20404;-66
2022/02/17 03:48:13;;;;;;;55.97;7.68;;;10.50;99.50;;;;;;5067229;28;20407;-67
2022/02/17 03:50:43;;;;;;;44.97;7.57;;;10.50;99.70;;;;;;5051957;28;20406;-68
2022/02/17 03:53:15;;;;;;;45.08;7.53;;;10.50;99.90;;;;;;5050948;28;20408;-67
2022/02/17 03:55:50;;;;;;;47.35;7.50;;;10.50;99.70;;;;;;5051541;28;20413;-67
2022/02/17 04:01:02;;;;;;;53.42;8.60;;;10.60;99.60;;;;;;5083334;28;20744;-67
2022/02/17 04:03:28;;;;;;;54.17;8.17;;;10.70;99.70;;;;;;5049967;28;20392;-67
2022/02/17 04:05:58;;;;;;;50.67;8.00;;;10.60;99.70;;;;;;5051864;28;20442;-67
2022/02/17 04:08:24;;;;;;;49.20;7.70;;;10.60;99.80;;;;;;5067139;28;20456;-67
2022/02/17 04:10:49;;;;;;;53.33;8.43;;;10.70;99.90;;;;;;5067973;28;20423;-67
2022/02/17 04:13:21;;;;;;;45.83;7.60;;;10.70;99.80;;;;;;5050587;28;20443;-67
2022/02/17 04:15:49;;;;;;;51.60;8.13;;;10.70;99.80;;;;;;5050939;28;20520;-67
2022/02/17 04:18:48;;;;;;;44.57;7.43;;;10.70;99.90;;;;;;5064519;28;20428;-68
2022/02/17 04:21:22;;;;;;;42.63;7.77;;;10.60;99.70;;;;;;5052124;28;20458;-68
2022/02/17 04:24:05;;;;;;;45.90;7.82;;;10.60;99.90;;;;;;5050053;28;20752;-68
2022/02/17 04:26:35;;;;;;;43.47;7.32;;;10.50;99.90;;;;;;5050407;28;20415;-68
2022/02/17 04:29:33;;;;;;;42.60;7.40;;;10.50;99.70;;;;;;5063983;28;20426;-67
2022/02/17 04:32:00;;;;;;;44.35;7.22;;;10.50;99.60;;;;;;5050736;28;20941;-68
2022/02/17 04:34:26;;;;;;;42.67;6.53;;;10.50;99.50;;;;;;5067028;28;20436;-68
2022/02/17 04:37:01;;;;;;;38.43;6.27;;;10.60;99.30;;;;;;5047037;28;20404;-68
2022/02/17 04:39:27;;;;;;;34.53;5.90;;;10.60;98.70;;;;;;5047888;28;20918;-68
2022/02/17 04:44:37;;;;;;;24.02;4.05;;;10.50;97.50;;;;;;5080275;28;20412;-68
2022/02/17 04:47:04;;;;;;;23.30;4.07;;;10.40;97.60;;;;;;5050435;28;21978;-68
2022/02/17 04:49:30;;;;;;;32.13;4.60;;;10.40;97.30;;;;;;5049790;28;20404;-67
2022/02/17 04:51:56;;;;;;;22.40;4.00;;;10.30;97.70;;;;;;5049082;28;20468;-67
2022/02/17 04:54:27;;;;;;;27.55;3.80;;;10.30;98.20;;;;;;5049521;28;20430;-68
2022/02/17 04:56:54;;;;;;;25.80;3.58;;;10.20;98.70;;;;;;5049711;28;20761;-69
2022/02/17 04:59:20;;;;;;;24.95;4.20;;;10.20;98.90;;;;;;5049434;28;20412;-68
2022/02/17 05:01:47;;;;;;;22.20;4.13;;;10.10;99.10;;;;;;5033586;28;20461;-68
2022/02/17 05:04:31;;;;;;;30.63;4.35;;;10.10;98.80;;;;;;5053223;28;20410;-68
2022/02/17 05:07:03;;;;;;;27.23;4.53;;;10.00;98.60;;;;;;5047531;28;20403;-67
2022/02/17 05:09:29;;;;;;;28.95;4.57;;;10.00;98.40;;;;;;5050117;28;20410;-67
2022/02/17 05:11:55;;;;;;;22.15;3.85;;;10.00;98.50;;;;;;5050180;28;20415;-67
2022/02/17 05:14:23;;;;;;;20.83;3.83;;;10.00;98.50;;;;;;5067481;28;20411;-67
2022/02/17 05:16:49;;;;;;;26.60;4.18;;;10.00;98.50;;;;;;5033418;28;20419;-67
2022/02/17 05:19:15;;;;;;;25.20;4.03;;;9.90;98.80;;;;;;5048638;28;20403;-67
2022/02/17 05:22:06;;;;;;;27.88;4.50;;;9.90;98.90;;;;;;5066095;28;20422;-67
2022/02/17 05:24:44;;;;;;;28.63;4.30;;;9.90;99.10;;;;;;5050348;28;20411;-67
2022/02/17 05:27:20;;;;;;;27.47;4.53;;;9.90;99.50;;;;;;5035329;28;20557;-68
2022/02/17 05:29:54;;;;;;;29.85;5.00;;;9.80;99.10;;;;;;5049458;28;20416;-68
2022/02/17 05:32:40;;;;;;;29.25;4.88;;;9.80;99.10;;;;;;5046193;28;20565;-67
2022/02/17 05:35:25;;;;;;;31.10;4.50;;;9.80;98.90;;;;;;5049152;28;20837;-68
2022/02/17 05:38:11;;;;;;;31.85;4.70;;;9.80;98.80;;;;;;5060407;28;20415;-67
2022/02/17 05:41:06;;;;;;;31.67;5.13;;;9.80;98.80;;;;;;4982350;28;20568;-65
2022/02/17 05:43:32;;;;;;;28.90;4.85;;;9.80;98.60;;;;;;5066501;28;20863;-66
2022/02/17 05:45:57;;;;;;;33.67;6.00;;;9.80;98.80;;;;;;5048145;28;20453;-68
2022/02/17 05:48:23;;;;;;;31.20;4.88;;;9.80;98.50;;;;;;5046152;28;20969;-68
2022/02/17 05:50:48;;;;;;;26.53;5.13;;;9.80;98.50;;;;;;5064549;28;20491;-69
2022/02/17 05:53:14;;;;;;;36.20;5.67;;;9.80;98.40;;;;;;5065243;28;20911;-68
2022/02/17 05:55:40;;;;;;;40.92;5.72;;;9.80;98.80;;;;;;5065686;28;20426;-68
2022/02/17 05:58:06;;;;;;;34.28;5.32;;;9.90;99.10;;;;;;5064132;28;20423;-68
2022/02/17 06:00:32;;;;;;;31.83;5.03;;;9.90;99.60;;;;;;5065041;28;20477;-68
2022/02/17 06:02:57;;;;;;;33.45;5.30;;;9.90;99.90;;;;;;5064578;28;20412;-68
2022/02/17 06:05:23;;;;;;;33.83;5.23;;;9.80;99.90;;;;;;5065338;28;20416;-68
2022/02/17 06:07:49;;;;;;;30.27;4.93;;;9.80;99.70;;;;;;5065344;28;20525;-68
2022/02/17 06:10:14;;;;;;;30.20;4.67;;;9.80;99.10;;;;;;5048400;28;20403;-68
2022/02/17 06:12:44;;;;;;;25.97;4.53;;;9.80;98.40;;;;;;5064863;28;20463;-68
2022/02/17 06:15:12;;;;;;;27.25;4.28;;;9.80;98.00;;;;;;5030529;28;20473;-68
2022/02/17 06:17:38;;;;;;;24.45;4.15;;;9.80;97.80;;;;;;5047252;28;20469;-68
2022/02/17 06:20:05;;;;;;;27.55;4.40;;;9.80;97.40;;;;;;5066358;28;20880;-68
2022/02/17 06:22:31;;;;;;;25.73;4.13;;;9.90;97.30;;;;;;5064647;28;20419;-68
2022/02/17 06:24:57;;;;;;;31.13;4.43;;;9.90;96.90;;;;;;5048387;28;20419;-68
2022/02/17 06:27:23;;;;;;;27.83;4.20;;;9.90;96.90;;;;;;5062367;28;20469;-68
2022/02/17 06:29:49;;;;;;;29.13;4.53;;;9.90;96.90;;;;;;5064440;28;20803;-68
2022/02/17 06:32:14;;;;;;;37.57;5.37;;;10.00;97.00;;;;;;5062655;28;20427;-68
2022/02/17 06:34:40;;;;;;;29.07;4.73;;;10.00;96.90;;;;;;5066227;28;20456;-68
2022/02/17 06:37:06;;;;;;;24.75;4.35;;;10.00;96.90;;;;;;5064992;28;20939;-68
2022/02/17 06:39:31;;;;;;;25.17;4.77;;;10.00;96.90;;;;;;5064673;28;20469;-70
2022/02/17 06:41:57;;;;;;;32.13;4.95;;;10.00;96.70;;;;;;5064566;28;20392;-68
2022/02/17 06:44:22;;;;;;;27.27;4.33;;;10.00;96.50;;;;;;5064580;28;20419;-68
2022/02/17 06:46:48;;;;;;;34.90;4.57;;;10.00;96.00;;;;;;5065468;28;20457;-68
2022/02/17 06:49:14;;;;;;;24.77;4.10;;;10.00;95.50;;;;;;5061273;28;20422;-68
2022/02/17 06:51:40;;;;;;;28.33;4.53;;;9.90;95.20;;;;;;5064793;28;20497;-68
2022/02/17 06:54:07;;;;;;;23.75;4.07;;;9.80;94.70;;;;;;5064681;28;20546;-68
2022/02/17 06:56:33;;;;;;;22.63;3.53;;;9.90;94.40;;;;;;5065706;28;20500;-68
2022/02/17 06:58:58;;;;;;;25.57;3.90;;;9.80;93.70;;;;;;5064362;28;20418;-68
2022/02/17 07:01:25;;;;;;;25.35;3.70;;;9.80;93.70;;;;;;5076689;28;20411;-68
2022/02/17 07:03:51;;;;;;;23.90;3.70;;;9.80;93.70;;;;;;5062922;28;20783;-68
2022/02/17 07:06:17;;;;;;;25.90;3.85;;;9.80;93.30;;;;;;5064309;28;20403;-69
2022/02/17 07:08:42;;;;;;;21.58;3.63;;;9.80;93.30;;;;;;5064189;28;20447;-68
2022/02/17 07:11:09;;;;;;;19.52;3.60;;;9.80;93.10;;;;;;5064848;28;20490;-68
2022/02/17 07:13:35;;;;;;;22.83;3.53;;;9.70;92.90;;;;;;5063740;28;20465;-68
2022/02/17 07:16:01;;;;;;;23.70;4.17;;;9.70;92.70;;;;;;5064219;28;20492;-68
2022/02/17 07:18:27;;;;;;;28.80;4.55;;;9.70;92.90;;;;;;5063204;28;20473;-68
2022/02/17 07:20:54;;;;;;;28.10;3.70;;;9.80;93.10;;;;;;5064486;28;20474;-68
2022/02/17 07:23:23;;;;;;;25.88;4.10;;;9.80;93.00;;;;;;5062850;28;20446;-68
2022/02/17 07:25:51;;;;;;;19.90;3.47;;;9.80;93.10;;;;;;5064213;28;20510;-68
2022/02/17 07:28:21;;;;;;;23.85;4.30;;;9.80;92.90;;;;;;5064786;28;20906;-68
2022/02/17 07:30:49;;;;;;;24.93;3.90;;;9.70;92.70;;;;;;5047710;28;20474;-68
2022/02/17 07:33:15;;;;;;;19.67;3.40;;;9.80;92.60;;;;;;5063843;28;20888;-67
2022/02/17 07:35:41;;;;;;;24.17;3.83;;;9.80;92.70;;;;;;5065676;28;20769;-68
2022/02/17 07:38:07;;;;;;;25.38;3.70;;;9.80;92.60;;;;;;5047015;28;20457;-68
2022/02/17 07:40:33;;;;;;;22.57;4.03;;;9.80;92.50;;;;;;5064597;28;20477;-70
2022/02/17 07:42:58;;;;;;;24.83;3.58;;;9.90;92.80;;;;;;5065960;28;20416;-68
2022/02/17 07:45:24;;;;;;;26.13;4.50;;;9.90;93.00;;;;;;5065498;28;20737;-68
2022/02/17 07:47:52;;;;;;;27.95;3.85;;;9.90;93.30;;;;;;5048438;28;20419;-67
2022/02/17 07:50:20;;;;;;;25.70;4.10;;;10.00;93.40;;;;;;5065482;28;20484;-67
2022/02/17 07:52:46;;;;;;;21.80;3.78;;;9.90;93.40;;;;;;5066397;28;20415;-67
2022/02/17 07:55:13;;;;;;;25.55;3.83;;;9.90;92.90;;;;;;5047990;28;20413;-67
2022/02/17 07:57:39;;;;;;;23.42;3.75;;;10.00;93.00;;;;;;5064580;28;20417;-66
2022/02/17 08:00:07;;;;;;;23.42;3.90;;;10.00;93.20;;;;;;5065626;28;20820;-67
2022/02/17 08:02:38;;;;;;;24.60;4.30;;;10.00;93.20;;;;;;5064806;28;20437;-66
2022/02/17 08:05:04;;;;;;;28.13;4.35;;;10.00;93.20;;;;;;5050227;28;20429;-67
2022/02/17 08:07:31;;;;;;;22.23;3.83;;;10.10;93.10;;;;;;5069044;28;20418;-66
2022/02/17 08:09:57;;;;;;;29.02;4.53;;;10.20;93.10;;;;;;5052213;28;20498;-67
2022/02/17 08:12:23;;;;;;;29.83;4.18;;;10.20;93.00;;;;;;5068681;28;20476;-67
2022/02/17 08:14:49;;;;;;;25.15;3.28;;;10.30;93.00;;;;;;5069647;28;20834;-67
2022/02/17 08:17:15;;;;;;;21.42;3.47;;;10.30;92.20;;;;;;5066423;28;20764;-67
2022/02/17 08:19:41;;;;;;;25.50;3.80;;;10.40;91.80;;;;;;5052205;28;20421;-68
2022/02/17 08:22:07;;;;;;;23.27;3.60;;;10.50;91.70;;;;;;5068819;28;20407;-67
2022/02/17 08:24:32;;;;;;;24.07;3.90;;;10.90;91.20;;;;;;5068692;28;20446;-67
2022/02/17 08:26:59;;;;;;;26.50;3.78;;;11.50;90.00;;;;;;5069122;28;20494;-67
2022/02/17 08:29:26;;;;;;;22.30;3.72;;;12.20;87.40;;;;;;5066669;28;20419;-66
2022/02/17 08:31:52;;;;;;;25.25;4.90;;;12.80;84.00;;;;;;5068302;28;20422;-67
2022/02/17 08:34:18;;;;;;;18.05;3.50;;;13.30;81.00;;;;;;5065510;28;20431;-67
2022/02/17 08:36:44;;;;;;;20.23;3.40;;;13.90;77.60;;;;;;5066515;28;20411;-67
2022/02/17 08:39:10;;;;;;;21.33;3.80;;;14.60;74.20;;;;;;5068002;28;20497;-67
2022/02/17 08:41:36;;;;;;;21.17;3.87;;;15.30;69.90;;;;;;5050298;28;20868;-68
2022/02/17 08:44:06;;;;;;;18.15;3.75;;;16.00;66.60;;;;;;5048958;28;20903;-68
2022/02/17 08:46:32;;;;;;;18.13;3.72;;;16.80;62.10;;;;;;5066475;28;20823;-68
2022/02/17 08:48:58;;;;;;;25.65;3.90;;;17.50;58.10;;;;;;5068007;28;20486;-67
2022/02/17 08:51:27;;;;;;;16.50;3.43;;;18.00;55.90;;;;;;5069370;28;20511;-67
2022/02/17 08:53:52;;;;;;;22.92;3.80;;;18.80;53.10;;;;;;5067147;28;20915;-67
2022/02/17 08:56:19;;;;;;;17.90;3.63;;;19.40;51.60;;;;;;5050340;28;20473;-67
2022/02/17 08:58:45;;;;;;;22.95;3.92;;;19.80;49.70;;;;;;5067840;28;20415;-67
2022/02/17 09:01:10;;;;;;;21.60;3.67;;;20.10;48.10;;;;;;5069166;28;20957;-67
2022/02/17 09:03:36;;;;;;;17.73;3.63;;;20.20;48.20;;;;;;5068085;28;20408;-68
2022/02/17 09:06:02;;;;;;;21.42;4.68;;;20.40;47.30;;;;;;5051731;28;20461;-67
2022/02/17 09:08:28;;;;;;;18.53;3.90;;;20.60;46.40;;;;;;5068577;28;20407;-67
2022/02/17 09:10:56;;;;;;;24.95;3.95;;;20.90;46.10;;;;;;5067394;28;20430;-68
2022/02/17 09:13:23;;;;;;;20.83;3.92;;;21.20;45.40;;;;;;5066748;28;20430;-67
2022/02/17 09:15:50;;;;;;;16.85;3.45;;;21.60;43.80;;;;;;5069212;28;20791;-68
2022/02/17 09:18:16;;;;;;;18.40;4.07;;;21.90;43.70;;;;;;5068265;28;20419;-67
2022/02/17 09:20:41;;;;;;;19.70;3.92;;;22.20;42.50;;;;;;5068610;28;20452;-67
2022/02/17 09:23:08;;;;;;;15.57;3.43;;;22.30;41.90;;;;;;5067949;28;20391;-67
2022/02/17 09:25:36;;;;;;;18.55;3.80;;;22.50;41.70;;;;;;5067489;28;20955;-68
2022/02/17 09:28:03;;;;;;;20.67;3.85;;;22.80;40.70;;;;;;5067359;28;20435;-68
2022/02/17 09:30:29;;;;;;;15.97;3.57;;;23.10;40.00;;;;;;5069329;28;20469;-68
2022/02/17 09:32:54;;;;;;;18.85;3.65;;;23.50;39.50;;;;;;5067521;28;20403;-68
2022/02/17 09:35:20;;;;;;;15.13;3.65;;;23.50;39.00;;;;;;5068778;28;20400;-68
2022/02/17 09:37:45;;;;;;;21.75;3.97;;;23.60;38.90;;;;;;5049218;28;20400;-68
2022/02/17 09:40:11;;;;;;;17.95;3.50;;;23.70;39.00;;;;;;5067888;28;20412;-68
2022/02/17 09:42:38;;;;;;;19.48;3.72;;;23.90;39.00;;;;;;5066661;28;20425;-68
2022/02/17 09:45:06;;;;;;;15.68;3.58;;;24.10;38.80;;;;;;5050693;28;20491;-68
2022/02/17 09:47:32;;;;;;;16.35;3.53;;;24.30;37.90;;;;;;5067219;28;20487;-68
2022/02/17 09:49:59;;;;;;;20.20;3.80;;;24.50;38.10;;;;;;5049469;28;20810;-68
2022/02/17 09:52:24;;;;;;;14.63;3.23;;;24.40;37.00;;;;;;5067113;28;20425;-67
2022/02/17 09:54:51;;;;;;;18.25;4.07;;;24.40;37.20;;;;;;5065370;28;20490;-68
2022/02/17 09:57:23;;;;;;;16.67;3.30;;;24.40;37.40;;;;;;5066799;28;20419;-68
2022/02/17 09:59:49;;;;;;;15.48;3.65;;;24.20;37.20;;;;;;5066572;28;20419;-68
2022/02/17 10:02:25;;;;;;;19.73;3.37;;;24.00;38.30;;;;;;5065266;28;20476;-68
2022/02/17 10:04:56;;;;;;;18.27;3.40;;;23.80;37.50;;;;;;5065873;28;20927;-67
2022/02/17 10:07:34;;;;;;;13.13;3.17;;;23.70;37.20;;;;;;5066795;28;20866;-68
2022/02/17 10:10:13;;;;;;;18.57;4.00;;;23.60;38.30;;;;;;5067128;28;20431;-66
2022/02/17 10:13:11;;;;;;;15.70;3.33;;;23.90;37.10;;;;;;5066870;28;20411;-68
2022/02/17 10:15:39;;;;;;;19.85;3.45;;;24.00;37.40;;;;;;5052201;28;20468;-67
2022/02/17 10:18:14;;;;;;;18.60;3.90;;;24.30;36.70;;;;;;5066063;28;20501;-68
2022/02/17 10:21:05;;;;;;;18.25;4.20;;;24.30;36.30;;;;;;5049708;28;20444;-68
2022/02/17 10:23:42;;;;;;;20.38;3.80;;;24.20;36.10;;;;;;5066116;28;20494;-67
2022/02/17 10:26:12;;;;;;;17.90;3.75;;;24.30;36.90;;;;;;5067562;28;20427;-69
2022/02/17 10:28:53;;;;;;;21.80;3.90;;;24.70;36.20;;;;;;5065956;28;20415;-69
2022/02/17 10:31:24;;;;;;;17.80;3.83;;;25.00;35.30;;;;;;5048555;28;20457;-68
2022/02/17 10:33:52;;;;;;;16.88;3.70;;;24.80;35.30;;;;;;5064710;28;20427;-68
2022/02/17 10:36:35;;;;;;;16.95;3.78;;;24.70;35.40;;;;;;5049492;28;20408;-68
2022/02/17 10:39:32;;;;;;;15.70;3.70;;;24.70;36.30;;;;;;5048016;28;20420;-68
2022/02/17 10:42:08;;;;;;;25.23;4.00;;;24.80;35.40;;;;;;5065409;28;20498;-68
2022/02/17 10:44:37;;;;;;;22.48;4.93;;;24.80;34.80;;;;;;5067144;28;20461;-68
2022/02/17 10:47:18;;;;;;;18.20;3.70;;;24.70;35.40;;;;;;5049020;28;20403;-68
2022/02/17 10:49:49;;;;;;;17.50;3.50;;;24.80;35.40;;;;;;5080000;28;20830;-68
2022/02/17 10:52:36;;;;;;;16.95;3.85;;;24.90;35.80;;;;;;5066612;28;20423;-68
2022/02/17 10:55:22;;;;;;;24.48;4.18;;;25.00;35.40;;;;;;5049757;28;20835;-68
2022/02/17 10:57:48;;;;;;;23.20;4.50;;;24.70;35.80;;;;;;5064871;28;20423;-68
2022/02/17 11:00:21;;;;;;;18.95;4.18;;;24.40;36.40;;;;;;5065691;28;20578;-68
2022/02/17 11:02:49;;;;;;;20.27;4.10;;;24.20;36.90;;;;;;5066319;28;20422;-68
2022/02/17 11:05:16;;;;;;;18.55;4.22;;;24.10;37.20;;;;;;5066828;28;20519;-67
2022/02/17 11:07:43;;;;;;;18.08;3.95;;;24.00;37.40;;;;;;5066886;28;20408;-68
2022/02/17 11:10:10;;;;;;;23.38;4.10;;;24.00;37.10;;;;;;5066791;28;20750;-68
2022/02/17 11:12:38;;;;;;;18.15;3.88;;;23.70;37.30;;;;;;5065109;28;20802;-68
2022/02/17 11:15:05;;;;;;;20.13;3.92;;;23.60;37.80;;;;;;5067358;28;20763;-68
2022/02/17 11:17:40;;;;;;;20.33;4.15;;;23.50;38.20;;;;;;5066068;28;20442;-68
2022/02/17 11:20:17;;;;;;;21.48;4.13;;;23.50;37.80;;;;;;5066441;28;20544;-69
2022/02/17 11:22:46;;;;;;;19.63;3.90;;;23.20;38.80;;;;;;5066047;28;20403;-68
2022/02/17 11:25:12;;;;;;;16.92;3.65;;;23.10;38.80;;;;;;5066695;28;20491;-70
2022/02/17 11:27:59;;;;;;;22.67;3.70;;;23.20;38.90;;;;;;5048530;28;20518;-69
2022/02/17 11:30:31;;;;;;;17.30;3.58;;;23.10;39.10;;;;;;5066929;28;20494;-68
2022/02/17 11:33:36;;;;;;;22.00;4.22;;;23.30;38.60;;;;;;5065158;28;21026;-67
2022/02/17 11:36:21;;;;;;;18.95;3.88;;;22.90;38.70;;;;;;5060795;28;20861;-68
2022/02/17 11:38:51;;;;;;;19.20;3.75;;;22.20;39.70;;;;;;5068706;28;20415;-68
2022/02/17 11:41:19;;;;;;;18.42;3.25;;;22.00;41.10;;;;;;5071555;28;20395;-67
2022/02/17 11:43:47;;;;;;;23.20;3.67;;;21.90;40.00;;;;;;5070540;28;20439;-68
2022/02/17 11:46:14;;;;;;;24.02;3.90;;;21.80;40.60;;;;;;5068521;28;20430;-68
2022/02/17 11:48:41;;;;;;;19.42;4.05;;;21.80;40.60;;;;;;5069132;28;20503;-68
2022/02/17 11:51:14;;;;;;;16.33;3.20;;;21.80;40.80;;;;;;5069977;28;20505;-67
2022/02/17 11:53:42;;;;;;;20.33;3.70;;;21.80;41.20;;;;;;5068991;28;20422;-69
2022/02/17 11:56:17;;;;;;;18.20;3.72;;;21.90;41.70;;;;;;5070717;28;20407;-68
2022/02/17 11:58:45;;;;;;;19.40;3.42;;;22.10;42.00;;;;;;5069765;28;20450;-69
2022/02/17 12:01:27;;;;;;;17.40;3.90;;;22.30;40.80;;;;;;5068129;28;20465;-69
2022/02/17 12:04:08;;;;;;;19.80;3.87;;;22.40;41.50;;;;;;5068316;28;20415;-69
2022/02/17 12:06:43;;;;;;;18.88;3.67;;;22.60;41.10;;;;;;5069792;28;20404;-68
2022/02/17 12:09:09;;;;;;;20.00;3.70;;;22.70;40.40;;;;;;5067549;28;20753;-68
2022/02/17 12:11:37;;;;;;;29.23;4.07;;;22.50;40.90;;;;;;5068871;28;20456;-68
2022/02/17 12:14:07;;;;;;;22.02;4.05;;;22.40;41.20;;;;;;5068648;28;20442;-68
2022/02/17 12:16:39;;;;;;;22.83;4.03;;;22.40;41.90;;;;;;5069383;28;20419;-68
2022/02/17 12:19:11;;;;;;;21.23;3.93;;;22.40;42.00;;;;;;5051243;28;20411;-68
2022/02/17 12:21:39;;;;;;;23.13;3.80;;;22.50;41.50;;;;;;5069728;28;22195;-68
2022/02/17 12:24:07;;;;;;;20.42;3.83;;;22.50;41.00;;;;;;5068644;28;20457;-68
2022/02/17 12:26:39;;;;;;;24.73;3.80;;;22.30;41.30;;;;;;5069320;28;20451;-67
2022/02/17 12:29:20;;;;;;;20.70;3.80;;;22.20;41.30;;;;;;5066929;28;20891;-68
2022/02/17 12:31:49;;;;;;;18.45;3.90;;;21.90;42.10;;;;;;5070052;28;20486;-68
2022/02/17 12:34:16;;;;;;;18.05;3.38;;;21.80;42.30;;;;;;5049883;28;20407;-67
2022/02/17 12:36:42;;;;;;;25.40;4.10;;;21.70;42.50;;;;;;5068654;28;20414;-69
2022/02/17 12:39:08;;;;;;;22.90;4.03;;;21.60;43.20;;;;;;5068397;28;20466;-67
2022/02/17 12:41:34;;;;;;;25.73;4.00;;;21.50;43.60;;;;;;5069717;28;20399;-67
2022/02/17 12:44:00;;;;;;;20.38;4.18;;;21.20;43.80;;;;;;5066544;28;20404;-68
2022/02/17 12:46:27;;;;;;;27.42;4.60;;;20.80;44.50;;;;;;5069230;28;20403;-68
2022/02/17 12:48:54;;;;;;;22.83;4.20;;;20.50;46.20;;;;;;5067458;28;20420;-67
2022/02/17 12:51:28;;;;;;;22.05;3.90;;;19.90;47.20;;;;;;5068608;28;20416;-69
2022/02/17 12:53:57;;;;;;;21.25;4.07;;;19.30;49.10;;;;;;5067806;28;20425;-69